Racecast

Leland Ziegler

Temperance Bedford (MI) · 9 · SECMI D1MONROE · Compare head to head

Athlete rating 103.4 2026 TF season
Best race 134.7 XC
Races 70
Seasons 5 2022 — 2026

RankedNation #92679·MI #4048·MI D1 #2211·SEC #174·Team #19 ?

Rating scale ?

Cross Country

2025 XC 108.1

Temperance Bedford (MI) · Grade 9

Date Meet Event Result Place Rating Difficulty PR/SR Flags
2025-10-11 Munson Park 5000m 19:44.5 19th · 2nd on team 111.8 +0.054 ★CR CSR
2025-09-27 Lake Erie Metro Park OFFICIAL 5000m 19:53.4 2nd · 1st on team 112.1 +0.055 ★CR CSR RSR
2025-09-25 Indian Creek OFFICIAL 5000m 19:30.7 61st · 9th on team 111.1 +0.039 ★CR CSR
2025-09-20 Ella Sharp Park OFFICIAL 5000m 19:29.4 264th · 9th on team 111.6 +0.038 ★PR ★CR SR CSR RSR
2025-09-09 Willow Metropark OFFICIAL 5000m 20:06.6 103rd · 9th on team 109.7 +0.048 ★CR CSR RSR
2025-08-30 Bowling Green 5000m 20:00.9 47th · 1st on team 99.7 -0.046 PR ★CR SR CSR RSR
2025-08-30 BGSU 5000m 20:00.9 47th · 1st on team 100.4 -0.038 ★CR CSR RSR
2025-08-22 Saline High School 5000m 21:26 16th · 5th on team +0.039 PR ★CR SR CSR

2024 XC 130.2

Temperance Bedford (MI) · Grade 8

Date Meet Event Result Place Rating Difficulty PR/SR Flags
2024-10-23 Milan HS OFFICIAL 3218m 12:37.64 28th · 2nd on team 134.7 +0.041 ★CR ★R CSR RSR
2024-10-19 Airport HS 3218m 13:06.4 18th · 3rd on team 128.4 +0.033 ★CR CSR
2024-10-16 Munson Park 3218m 12:30.4 31st · 2nd on team 134.1 +0.034 ★PR ★CR R SR CSR RSR
2024-10-12 Munson Park 3200m 12:39.4 24th · 1st on team 132.0 +0.034 ★PR ★CR R SR CSR RSR
2024-10-05 Monroe Township Stoneco Park 3218m 12:46.41 12th · 2nd on team 128.0 +0.006 PR ★CR SR CSR
2024-10-02 Lincoln Middle School 3218m 12:55.4 30th · 1st on team 131.4 +0.043 ★CR R SR CSR RSR
2024-09-28 Lake Erie Metro Park OFFICIAL 3200m 13:04.9 35th · 4th on team 127.9 +0.034 PR ★CR SR CSR RSR
2024-09-19 Manly W. Bennett Park 3218m 14:07.18 40th · 2nd on team 125.5 +0.100 ★CR SR CSR RSR

2023 XC 124.4

Temperance Bedford (MI) · Grade 7

Date Meet Event Result Place Rating Difficulty PR/SR Flags
2023-10-25 Milan HS OFFICIAL 3218m 13:18.4 52nd · 2nd on team 128.7 +0.041 CR CSR
2023-10-18 Indian Creek OFFICIAL 3218m 12:52 28th · 2nd on team 131.2 +0.038 PR ★CR R SR CSR RSR
2023-10-14 Munson Park 3200m 13:49.8 44th · 3rd on team 122.6 +0.034 PR CR SR CSR
2023-10-07 Monroe Township Stoneco Park 3218m 13:38.7 28th · 3rd on team 121.0 +0.006 PR CR SR CSR
2023-10-04 Ella Sharp Park OFFICIAL 3218m 14:01.1 49th · 3rd on team 123.5 +0.055
2023-09-22 Ella Sharp Park OFFICIAL 3218m 13:55 84th · 3rd on team 124.4 +0.055 ★CR R SR CSR RSR
2023-09-20 Heritage Park (Adrian) OFFICIAL 3218m 14:13 43rd · 3rd on team 119.1 +0.046 ★CR SR CSR RSR

2022 XC 116.6

Temperance Bedford (MI) · Grade 6

Date Meet Event Result Place Rating Difficulty PR/SR Flags
2022-10-22 Hudson HS 3218m 13:53.2 95th · 10th on team 122.0 +0.029 PR ★CR R SR CSR RSR
2022-10-19 Saline High School 3218m 13:58.4 28th · 1st on team 120.7 +0.016 ★CR R CSR RSR
2022-10-15 Munson Park 3200m 14:18.8 86th · 13th on team 118.3 +0.034 PR CR SR CSR
2022-10-08 Monroe Township Stoneco Park 3218m 13:54.4 4th · 4th on team 118.9 +0.006 PR CR SR CSR
2022-10-05 Tecumseh HS 3218m 14:17.9 29th · 1st on team 119.5 +0.036 PR ★CR R SR CSR RSR
2022-10-01 Lake Erie Metro Park OFFICIAL 3218m 14:45.1 115th · 11th on team 115.6 +0.034 PR ★CR R SR CSR RSR
2022-09-23 Ella Sharp Park OFFICIAL 3218m 15:10.5 142nd · 15th on team 115.1 +0.055 PR CR R SR CSR RSR
2022-09-21 Manly W. Bennett Park 3218m 15:57.2 43rd · 4th on team 114.2 +0.100 PR CR R SR CSR RSR
2022-09-17 Ottawa Park Golf Course 3200m 15:08.9 70th · 11th on team 105.1 -0.037 PR ★CR R SR CSR RSR

Track & Field

2026 TF 101.0

Temperance Bedford (MI) · Grade 9

Date Meet Event Result Place Rating Difficulty PR/SR Flags
2026-05-22 2026 MITCA D1 Team State 3200m 11:52.2 39th · 3rd on team 102.2 -0.037 ★PR SR
2026-05-21 Dundee Freshman Beck Invitational 1600m 5:31.95 9th · 2nd on team 102.3 -0.026
2026-05-21 Dundee Freshman Beck Invitational 3200m 12:04.83 5th · 1st on team 101.6 -0.026
2026-04-29 Knight Classic JV Invitational 1600m 5:22.57 6th · 2nd on team 103.7 -0.040 ★PR SR RSR
2026-04-29 Knight Classic JV Invitational 3200m 12:01.99 7th · 2nd on team 100.5 -0.040
2026-04-28 SEC-HS: Bedford @ Monroe 800m 2:29.9 8th · 5th on team 100.8 -0.032 ★PR SR
2026-04-20 SEC-HS: Bedford @ Pioneer 1600m 5:31.62 11th · 3rd on team 102.2 -0.028
2026-04-20 SEC-HS: Bedford @ Pioneer 3200m 11:58.99 8th · 3rd on team 102.2 -0.028 PR SR
2026-04-14 SEC-HS: Huron & Saline at Bedford 3200m 12:10.14 10th · 4th on team 100.2 -0.033
2026-04-14 SEC-HS: Huron & Saline at Bedford 1600m 5:29.69 21st · 4th on team 102.3 -0.033 PR SR RSR
2026-04-09 Whitmer JV Invitational 3200m 12:00.42 5th · 2nd on team 100.7 -0.040 PR SR RSR
2026-04-07 SEC-HS: Bedford & Dexter @ Skyline 1600m 5:41.33 36th · 8th on team 98.7 -0.033 PR SR RSR
2026-04-07 SEC-HS: Bedford & Dexter @ Skyline 3200m 12:21.75 16th · 4th on team 98.5 -0.033
2026-03-26 Lincoln Indoor Invite 3200m 12:19.83 35th · 3rd on team 98.6 -0.035 PR SR RSR

2025 TF 111.5

Temperance Bedford (MI) · Grade 8

Date Meet Event Result Place Rating Difficulty PR/SR Flags
2025-05-13 SEC-MS Championship 3200m 12:35.46 10th · 1st on team 113.2 -0.026
2025-05-13 SEC-MS Championship 55mh 10.08 7th · 1st on team -0.026 ★PR SR
2025-05-09 SEC-MS Bedford@Monroe Dual Meet 2025 55mh 10.4 3rd · 1st on team -0.032
2025-05-09 SEC-MS Bedford@Monroe Dual Meet 2025 3200m 12:35.09 1st · 1st on team 112.9 -0.032
2025-05-05 SEC-MS: Lincoln @ Bedford 3200m 12:23.11 2nd · 2nd on team 114.2 -0.033 PR SR RSR
2025-05-05 SEC-MS: Lincoln @ Bedford 55mh 10.55 3rd · 1st on team -0.033
2025-05-01 SEC-MS: Bedford @ Saline 55mh 10.4 1st · 1st on team -0.038
2025-05-01 SEC-MS: Bedford @ Saline 1600m 5:51.28 5th · 1st on team 112.3 -0.038 PR SR RSR
2025-04-28 SEC-MS: Bedford at Adrian 55mh 10.18 1st · 1st on team -0.024 PR SR
2025-04-28 SEC-MS: Bedford at Adrian 800m 2:47.76 2nd · 2nd on team 108.2 -0.024 PR SR
2025-04-24 SEC-MS Pinckney @ Bedford 1600m 6:05.84 10th · 2nd on team 108.3 -0.033 PR SR RSR
2025-04-24 SEC-MS Pinckney @ Bedford 55mh 10.7 1st · 1st on team -0.033 PR SR

2024 TF 104.5

Temperance Bedford (MI) · Grade 7

Date Meet Event Result Place Rating Difficulty PR/SR Flags
2024-05-14 SEC-MS Championship (Pinc) 3200m 13:33.85 16th · 2nd on team 104.5 -0.033 PR SR
2024-05-10 SEC-MS: Monroe at Bedford 55mh 11.15 6th · 4th on team -0.033 PR SR
2024-05-10 SEC-MS: Monroe at Bedford 1600m 6:16.72 6th · 3rd on team 105.3 -0.033 PR SR RSR
2024-04-25 SEC MS: Saline @ Bedford 55mh 11.42 10th · 7th on team -0.033 PR SR
2024-04-25 SEC MS: Saline @ Bedford 3200m 13:38.05 2nd · 1st on team 103.6 -0.033 PR SR RSR

2023 TF 98.0

Temperance Bedford (MI) · Grade 6

Date Meet Event Result Place Rating Difficulty PR/SR Flags
2023-05-17 23 Saline Middle School Hornet Relays 1600m 6:27.54 30th · 5th on team 101.4 -0.042 PR SR RSR
2023-05-15 SEC-MS: Lincoln & Bedford @ Monroe 800m 3:08.95 13th · 5th on team 95.9 -0.032 PR SR
2023-05-15 SEC-MS: Lincoln & Bedford @ Monroe 3200m 14:51.25 4th · 3rd on team 95.9 -0.032
2023-05-08 SEC-MS Chelsea & Ypsi @Bedford 1600m 6:42.6 10th · 4th on team 98.4 -0.033 PR SR RSR
2023-05-08 SEC-MS Chelsea & Ypsi @Bedford 200m 34.04 23rd · 13th on team -0.033 ★PR SR
2023-05-04 SEC-MS Bedford at Saline 3200m 14:17.5 3rd · 2nd on team 98.2 -0.038 PR SR RSR
2023-05-04 SEC-MS Bedford at Saline 400m 1:15.37 16th · 10th on team -0.038 ★PR SR